Time;durP1;ratioP1;P1;durP2;ratioP2;P2;SDS_P1;SDS_P2;PMS_P1;PMS_P2;Temp;Humidity;BMP_temperature;BMP_pressure;BME280_temperature;BME280_humidity;BME280_pressure;Samples;Min_cycle;Max_cycle;Signal;HPM_P1;HPM_P2
2023/02/12 00:00:49;;;;;;;;;;;;;;;13.36;69.41;103516.88;1271650;23;619;-64
2023/02/12 00:01:39;;;;;;;;;;;;;;;13.34;68.97;103513.34;1271901;23;595;-64
2023/02/12 00:02:29;;;;;;;;;;;;;;;13.35;69.18;103511.56;1271698;23;633;-64
2023/02/12 00:03:20;;;;;;;;;;;;;;;13.36;69.42;103513.31;1271807;23;646;-64
2023/02/12 00:04:10;;;;;;;;;;;;;;;13.34;69.51;103508.00;1271717;23;677;-63
2023/02/12 00:05:01;;;;;;;;;;;;;;;13.37;69.21;103507.91;1271808;23;598;-63
2023/02/12 00:05:51;;;;;;;;;;;;;;;13.35;69.68;103509.75;1266129;23;610;-63
2023/02/12 00:06:42;;;;;;;;;;;;;;;13.36;69.58;103511.50;1266917;23;645;-63
2023/02/12 00:07:32;;;;;;;;;;;;;;;13.35;69.12;103507.06;1272685;23;602;-63
2023/02/12 00:08:22;;;;;;;;;;;;;;;13.36;69.50;103514.19;1271608;23;645;-63
2023/02/12 00:09:13;;;;;;;;;;;;;;;13.36;68.98;103505.28;1271855;23;641;-64
2023/02/12 00:10:03;;;;;;;;;;;;;;;13.35;69.37;103509.75;1271701;23;606;-63
2023/02/12 00:10:54;;;;;;;;;;;;;;;13.36;69.18;103511.50;1271830;23;789;-64
2023/02/12 00:11:44;;;;;;;;;;;;;;;13.36;69.27;103508.81;1272440;23;684;-64
2023/02/12 00:12:35;;;;;;;;;;;;;;;13.35;69.20;103507.06;1271766;23;614;-64
2023/02/12 00:13:25;;;;;;;;;;;;;;;13.35;69.10;103509.75;1271959;23;626;-64
2023/02/12 00:14:15;;;;;;;;;;;;;;;13.37;69.46;103507.03;1271726;23;609;-64
2023/02/12 00:15:06;;;;;;;;;;;;;;;13.37;68.93;103507.03;1271726;23;626;-63
2023/02/12 00:15:56;;;;;;;;;;;;;;;13.37;69.40;103507.91;1271612;23;668;-64
2023/02/12 00:16:47;;;;;;;;;;;;;;;13.38;69.24;103508.78;1271655;23;626;-64
2023/02/12 00:17:37;;;;;;;;;;;;;;;13.38;68.71;103515.00;1271962;23;616;-64
2023/02/12 00:18:27;;;;;;;;;;;;;;;13.38;69.31;103506.97;1271537;23;687;-63
2023/02/12 00:19:18;;;;;;;;;;;;;;;13.38;68.85;103515.00;1271915;23;606;-64
2023/02/12 00:20:08;;;;;;;;;;;;;;;13.37;69.49;103507.03;1271545;23;645;-64
2023/02/12 00:20:59;;;;;;;;;;;;;;;13.37;68.86;103509.72;1271693;23;807;-64
2023/02/12 00:21:49;;;;;;;;;;;;;;;13.36;68.73;103510.63;1271902;23;641;-64
2023/02/12 00:22:39;;;;;;;;;;;;;;;13.37;69.71;103509.72;1272376;23;642;-64
2023/02/12 00:23:30;;;;;;;;;;;;;;;13.38;69.64;103508.78;1271739;23;665;-64
2023/02/12 00:24:20;;;;;;;;;;;;;;;13.36;69.84;103511.50;1271630;23;649;-64
2023/02/12 00:25:12;;;;;;;;;;;;;;;13.37;70.29;103507.03;1271752;23;680;-64
2023/02/12 00:26:03;;;;;;;;;;;;;;;13.37;69.53;103513.25;1271707;23;606;-64
2023/02/12 00:26:53;;;;;;;;;;;;;;;13.38;69.29;103509.66;1271995;23;669;-64
2023/02/12 00:27:44;;;;;;;;;;;;;;;13.38;69.32;103515.00;1271757;23;594;-64
2023/02/12 00:28:34;;;;;;;;;;;;;;;13.38;69.31;103506.97;1271984;23;606;-64
2023/02/12 00:29:24;;;;;;;;;;;;;;;13.38;69.84;103515.00;1271573;23;630;-64
2023/02/12 00:30:15;;;;;;;;;;;;;;;13.39;69.24;103510.53;1271771;23;1889;-64
2023/02/12 00:31:05;;;;;;;;;;;;;;;13.36;69.48;103513.31;1271536;23;642;-64
2023/02/12 00:31:56;;;;;;;;;;;;;;;13.37;69.07;103512.38;1271187;23;598;-64
2023/02/12 00:32:46;;;;;;;;;;;;;;;13.37;69.02;103512.38;1271888;23;613;-64
2023/02/12 00:33:37;;;;;;;;;;;;;;;13.36;69.28;103505.28;1271597;23;618;-64
2023/02/12 00:34:27;;;;;;;;;;;;;;;13.35;68.79;103508.88;1271845;23;610;-64
2023/02/12 00:35:17;;;;;;;;;;;;;;;13.33;69.58;103508.94;1271504;23;657;-64
2023/02/12 00:36:08;;;;;;;;;;;;;;;13.33;69.22;103500.91;1271793;23;622;-64
2023/02/12 00:36:58;;;;;;;;;;;;;;;13.33;69.60;103506.25;1271441;23;696;-64
2023/02/12 00:37:49;;;;;;;;;;;;;;;13.33;68.82;103506.25;1271696;23;590;-64
2023/02/12 00:38:39;;;;;;;;;;;;;;;13.34;69.81;103512.47;1271786;23;657;-64
2023/02/12 00:39:30;;;;;;;;;;;;;;;13.33;69.08;103508.94;1271637;23;609;-65
2023/02/12 00:40:20;;;;;;;;;;;;;;;13.32;69.52;103512.53;1271968;23;585;-65
2023/02/12 00:41:10;;;;;;;;;;;;;;;13.31;69.27;103508.09;1271567;23;597;-64
2023/02/12 00:42:01;;;;;;;;;;;;;;;13.32;68.71;103501.81;1271770;23;685;-65
2023/02/12 00:42:51;;;;;;;;;;;;;;;13.30;69.13;103501.00;1271591;23;773;-64
2023/02/12 00:43:42;;;;;;;;;;;;;;;13.30;69.33;103508.16;1271801;23;625;-64
2023/02/12 00:44:32;;;;;;;;;;;;;;;13.30;69.04;103497.44;1271889;23;623;-65
2023/02/12 00:45:22;;;;;;;;;;;;;;;13.28;69.69;103497.50;1271504;23;618;-64
2023/02/12 00:46:13;;;;;;;;;;;;;;;13.27;69.52;103501.09;1271220;23;633;-64
2023/02/12 00:47:03;;;;;;;;;;;;;;;13.26;69.71;103499.34;1271420;23;731;-64
2023/02/12 00:47:54;;;;;;;;;;;;;;;13.25;69.93;103491.38;1271614;23;802;-64
2023/02/12 00:48:44;;;;;;;;;;;;;;;13.28;69.99;103492.13;1271974;23;622;-64
2023/02/12 00:49:35;;;;;;;;;;;;;;;13.32;70.30;103488.44;1271611;23;610;-64
2023/02/12 00:50:25;;;;;;;;;;;;;;;13.38;70.12;103493.59;1271735;23;1881;-64
2023/02/12 00:51:15;;;;;;;;;;;;;;;13.42;70.57;103484.53;1271628;23;614;-64
2023/02/12 00:52:06;;;;;;;;;;;;;;;13.49;71.10;103493.19;1271813;23;653;-64
2023/02/12 00:52:56;;;;;;;;;;;;;;;13.53;70.87;103481.47;1271569;23;598;-62
2023/02/12 00:53:47;;;;;;;;;;;;;;;13.59;71.67;103489.28;1271577;23;602;-63
2023/02/12 00:54:37;;;;;;;;;;;;;;;13.63;71.37;103488.22;1271907;23;625;-63
2023/02/12 00:55:28;;;;;;;;;;;;;;;13.67;71.19;103491.69;1271558;23;765;-64
2023/02/12 00:56:18;;;;;;;;;;;;;;;13.70;71.34;103492.44;1271817;23;678;-63
2023/02/12 00:57:08;;;;;;;;;;;;;;;13.72;71.03;103492.41;1271555;23;612;-65
2023/02/12 00:57:59;;;;;;;;;;;;;;;13.76;70.85;103494.03;1271724;23;679;-65
2023/02/12 00:58:49;;;;;;;;;;;;;;;13.82;71.67;103492.00;1273438;23;644;-65
2023/02/12 00:59:41;;;;;;;;;;;;;;;13.85;70.55;103496.38;1271636;23;657;-66
2023/02/12 01:00:32;;;;;;;;;;;;;;;13.86;70.77;103496.31;1271128;23;686;-66
2023/02/12 01:01:22;;;;;;;;;;;;;;;13.84;71.16;103498.19;1271928;23;645;-65
2023/02/12 01:02:12;;;;;;;;;;;;;;;13.84;70.88;103499.97;1271580;23;640;-66
2023/02/12 01:03:03;;;;;;;;;;;;;;;13.85;70.97;103499.06;1271883;23;673;-65
2023/02/12 01:03:53;;;;;;;;;;;;;;;13.88;71.23;103498.94;1271474;23;610;-65
2023/02/12 01:04:44;;;;;;;;;;;;;;;13.87;70.66;103498.06;1271666;23;609;-65
2023/02/12 01:05:34;;;;;;;;;;;;;;;13.84;70.54;103494.63;1271845;23;640;-66
2023/02/12 01:06:25;;;;;;;;;;;;;;;13.82;70.03;103496.47;1271558;23;605;-65
2023/02/12 01:07:15;;;;;;;;;;;;;;;13.81;68.95;103503.66;1271832;23;611;-65
2023/02/12 01:08:05;;;;;;;;;;;;;;;13.81;69.02;103500.09;1271539;23;624;-65
2023/02/12 01:08:56;;;;;;;;;;;;;;;13.80;69.18;103501.00;1271723;23;637;-66
2023/02/12 01:09:46;;;;;;;;;;;;;;;13.77;68.94;103498.47;1271395;23;602;-66
2023/02/12 01:10:37;;;;;;;;;;;;;;;13.76;68.86;103500.28;1265962;23;1955;-67
2023/02/12 01:11:27;;;;;;;;;;;;;;;13.78;69.75;103498.41;1266899;23;677;-67
2023/02/12 01:12:17;;;;;;;;;;;;;;;13.79;70.16;103500.13;1272518;23;581;-67
2023/02/12 01:13:08;;;;;;;;;;;;;;;13.81;71.38;103508.13;1271771;23;605;-67
2023/02/12 01:13:59;;;;;;;;;;;;;;;13.82;71.77;103496.47;1271643;23;673;-67
2023/02/12 01:14:49;;;;;;;;;;;;;;;13.85;71.64;103499.06;1271797;23;602;-67
2023/02/12 01:15:39;;;;;;;;;;;;;;;13.87;71.84;103507.91;1271536;23;626;-66
2023/02/12 01:16:35;;;;;;;;;;;;;;;13.87;71.45;103502.56;1271685;23;680;-66
2023/02/12 01:17:25;;;;;;;;;;;;;;;13.89;70.75;103508.75;1271689;23;634;-67
2023/02/12 01:18:16;;;;;;;;;;;;;;;13.91;71.99;103501.53;1271629;23;625;-67
2023/02/12 01:19:06;;;;;;;;;;;;;;;13.94;71.98;103504.09;1271746;23;661;-67
2023/02/12 01:19:57;;;;;;;;;;;;;;;13.94;72.43;103508.59;1271768;23;618;-67
2023/02/12 01:20:47;;;;;;;;;;;;;;;13.93;72.41;103506.81;1272447;23;606;-67
2023/02/12 01:21:38;;;;;;;;;;;;;;;13.93;70.71;103506.81;1271585;23;657;-67
2023/02/12 01:22:28;;;;;;;;;;;;;;;13.92;69.61;103505.06;1271811;23;617;-67
2023/02/12 01:23:18;;;;;;;;;;;;;;;13.90;69.97;103502.44;1271533;23;618;-67
2023/02/12 01:24:09;;;;;;;;;;;;;;;13.88;69.64;103507.00;1271835;23;677;-67
2023/02/12 01:24:59;;;;;;;;;;;;;;;13.87;69.54;103505.25;1271398;23;614;-67
2023/02/12 01:25:50;;;;;;;;;;;;;;;13.85;70.11;103501.72;1271630;23;649;-66
2023/02/12 01:26:40;;;;;;;;;;;;;;;13.87;69.13;103505.25;1271747;23;625;-66
2023/02/12 01:27:31;;;;;;;;;;;;;;;13.86;69.45;103501.69;1271540;23;650;-67
2023/02/12 01:28:21;;;;;;;;;;;;;;;13.87;70.04;103507.91;1271780;23;693;-66
2023/02/12 01:29:11;;;;;;;;;;;;;;;13.88;70.22;103505.19;1271570;23;622;-66
2023/02/12 01:30:02;;;;;;;;;;;;;;;13.89;70.29;103501.56;1271676;23;641;-66
2023/02/12 01:30:52;;;;;;;;;;;;;;;13.91;71.68;103506.88;1271857;23;585;-66
2023/02/12 01:31:43;;;;;;;;;;;;;;;13.93;71.39;103506.81;1271613;23;633;-66
2023/02/12 01:32:33;;;;;;;;;;;;;;;13.90;70.86;103507.81;1271780;23;579;-66
2023/02/12 01:33:23;;;;;;;;;;;;;;;13.87;70.52;103511.47;1271445;23;606;-66
2023/02/12 01:34:14;;;;;;;;;;;;;;;13.90;70.89;103510.50;1272132;23;665;-66
2023/02/12 01:35:04;;;;;;;;;;;;;;;13.90;71.48;103507.81;1271828;23;591;-66
2023/02/12 01:35:55;;;;;;;;;;;;;;;13.91;71.22;103512.25;1272055;23;591;-66
2023/02/12 01:36:45;;;;;;;;;;;;;;;13.94;70.88;103512.13;1272269;23;652;-66
2023/02/12 01:37:36;;;;;;;;;;;;;;;13.94;70.46;103509.47;1271975;23;602;-65
2023/02/12 01:38:26;;;;;;;;;;;;;;;13.92;70.20;103511.31;1266487;23;649;-65
2023/02/12 01:39:17;;;;;;;;;;;;;;;13.92;70.26;103518.47;1267186;23;622;-65
2023/02/12 01:40:07;;;;;;;;;;;;;;;13.89;69.82;103512.28;1272611;23;652;-66
2023/02/12 01:40:57;;;;;;;;;;;;;;;13.87;69.08;103514.16;1271924;23;602;-65
2023/02/12 01:41:48;;;;;;;;;;;;;;;13.86;69.45;103512.41;1271979;23;636;-64
2023/02/12 01:42:39;;;;;;;;;;;;;;;13.85;69.49;103515.13;1272099;23;630;-64
2023/02/12 01:43:29;;;;;;;;;;;;;;;13.86;69.04;103514.22;1272225;23;630;-64
2023/02/12 01:44:20;;;;;;;;;;;;;;;13.86;69.63;103516.88;1271587;23;673;-63
2023/02/12 01:45:10;;;;;;;;;;;;;;;13.85;69.11;103512.47;1272218;23;641;-64
2023/02/12 01:46:01;;;;;;;;;;;;;;;13.85;69.56;103515.13;1271957;23;666;-63
2023/02/12 01:46:51;;;;;;;;;;;;;;;13.84;69.53;103516.94;1272367;23;614;-64
2023/02/12 01:47:42;;;;;;;;;;;;;;;13.84;69.05;103514.25;1271999;23;677;-64
2023/02/12 01:48:32;;;;;;;;;;;;;;;13.82;68.79;103516.13;1272079;23;618;-64
2023/02/12 01:49:23;;;;;;;;;;;;;;;13.82;69.58;103507.19;1271870;23;665;-64
2023/02/12 01:50:13;;;;;;;;;;;;;;;13.81;69.03;103505.44;1272235;23;684;-64
2023/02/12 01:51:03;;;;;;;;;;;;;;;13.82;68.87;103510.75;1271992;23;618;-64
2023/02/12 01:51:54;;;;;;;;;;;;;;;13.81;68.42;103508.13;1271984;23;638;-64
2023/02/12 01:52:44;;;;;;;;;;;;;;;13.81;69.26;103508.13;1272112;23;678;-64
2023/02/12 01:53:35;;;;;;;;;;;;;;;13.82;69.16;103515.25;1271990;23;633;-64
2023/02/12 01:54:25;;;;;;;;;;;;;;;13.80;68.86;103512.63;1272123;23;688;-65
2023/02/12 01:55:15;;;;;;;;;;;;;;;13.79;69.18;103516.22;1271917;23;613;-64
2023/02/12 01:56:06;;;;;;;;;;;;;;;13.78;68.78;103519.88;1272000;23;1295;-64
2023/02/12 01:56:56;;;;;;;;;;;;;;;13.78;69.10;103509.16;1272851;23;665;-64
2023/02/12 01:57:47;;;;;;;;;;;;;;;13.81;69.15;103521.53;1272752;23;600;-64
2023/02/12 01:58:37;;;;;;;;;;;;;;;13.78;68.73;103509.16;1272422;23;653;-64
2023/02/12 01:59:28;;;;;;;;;;;;;;;13.78;68.77;103509.16;1272939;23;611;-65
2023/02/12 02:00:18;;;;;;;;;;;;;;;13.77;68.68;103509.19;1272914;23;613;-64
2023/02/12 02:01:09;;;;;;;;;;;;;;;13.76;68.50;103505.63;1272841;23;597;-64
2023/02/12 02:01:59;;;;;;;;;;;;;;;13.75;68.66;103503.00;1272958;23;613;-64
2023/02/12 02:02:49;;;;;;;;;;;;;;;13.74;68.54;103510.19;1272926;23;633;-64
2023/02/12 02:03:40;;;;;;;;;;;;;;;13.75;68.65;103509.25;1266378;23;751;-64
2023/02/12 02:04:30;;;;;;;;;;;;;;;13.76;68.34;103510.13;1266607;23;645;-64
2023/02/12 02:05:21;;;;;;;;;;;;;;;13.76;68.99;103502.09;1272555;23;685;-65
2023/02/12 02:06:11;;;;;;;;;;;;;;;13.77;68.86;103501.16;1272990;23;712;-65
2023/02/12 02:07:02;;;;;;;;;;;;;;;13.77;68.70;103499.34;1272866;23;657;-65
2023/02/12 02:07:52;;;;;;;;;;;;;;;13.75;68.25;103503.88;1272870;23;633;-65
2023/02/12 02:08:42;;;;;;;;;;;;;;;13.76;68.66;103504.75;1272663;23;661;-64
2023/02/12 02:09:33;;;;;;;;;;;;;;;13.76;68.80;103507.44;1272857;23;602;-65
2023/02/12 02:10:23;;;;;;;;;;;;;;;13.76;68.21;103504.75;1272806;23;1904;-64
2023/02/12 02:14:41;;;;;;;;;;;;;;;13.74;68.81;103503.94;1272222;23;610;-64
2023/02/12 02:15:32;;;;;;;;;;;;;;;13.74;68.92;103502.13;1272797;23;598;-63
2023/02/12 02:16:22;;;;;;;;;;;;;;;13.75;68.27;103503.00;1272706;23;704;-64
2023/02/12 02:17:12;;;;;;;;;;;;;;;13.75;68.67;103503.00;1272706;23;589;-63
2023/02/12 02:18:03;;;;;;;;;;;;;;;13.74;68.23;103499.47;1272842;23;566;-65
2023/02/12 02:18:53;;;;;;;;;;;;;;;13.73;68.45;103505.75;1272951;23;626;-65
2023/02/12 02:19:44;;;;;;;;;;;;;;;13.73;68.19;103503.06;1272699;23;594;-65
2023/02/12 02:20:34;;;;;;;;;;;;;;;13.73;68.51;103500.38;1272855;23;610;-65
2023/02/12 02:21:25;;;;;;;;;;;;;;;13.73;68.66;103500.38;1272682;23;681;-65
2023/02/12 02:22:15;;;;;;;;;;;;;;;13.72;68.54;103500.44;1272872;23;618;-64
2023/02/12 02:23:05;;;;;;;;;;;;;;;13.71;68.51;103506.72;1272911;23;642;-65
2023/02/12 02:23:56;;;;;;;;;;;;;;;13.72;68.65;103504.00;1272841;23;649;-65
2023/02/12 02:24:46;;;;;;;;;;;;;;;13.73;68.35;103504.88;1272870;23;653;-65
2023/02/12 02:25:37;;;;;;;;;;;;;;;13.72;68.59;103509.34;1272695;23;605;-66
2023/02/12 02:26:27;;;;;;;;;;;;;;;13.73;68.08;103505.75;1272746;23;597;-66
2023/02/12 02:27:18;;;;;;;;;;;;;;;13.73;68.21;103502.19;1272041;23;622;-66
2023/02/12 02:28:08;;;;;;;;;;;;;;;13.73;68.90;103502.19;1272910;23;660;-65
2023/02/12 02:28:59;;;;;;;;;;;;;;;13.73;68.33;103504.88;1272810;23;657;-65
2023/02/12 02:29:49;;;;;;;;;;;;;;;13.73;68.26;103502.19;1272809;23;692;-65
2023/02/12 02:30:43;;;;;;;;;;;;;;;13.72;68.00;103497.75;1272695;23;1877;-66
2023/02/12 02:31:34;;;;;;;;;;;;;;;13.71;68.70;103498.69;1272043;23;657;-65
2023/02/12 02:32:24;;;;;;;;;;;;;;;13.71;68.45;103501.38;1272930;23;641;-65
2023/02/12 02:33:15;;;;;;;;;;;;;;;13.70;68.68;103496.94;1272871;23;661;-66
2023/02/12 02:34:05;;;;;;;;;;;;;;;13.70;68.64;103499.59;1272860;23;641;-66
2023/02/12 02:34:56;;;;;;;;;;;;;;;13.71;68.23;103493.31;1272883;23;742;-66
2023/02/12 02:35:46;;;;;;;;;;;;;;;13.69;68.71;103490.69;1272853;23;661;-66
2023/02/12 02:36:36;;;;;;;;;;;;;;;13.69;68.65;103492.50;1267224;23;649;-66
2023/02/12 02:37:27;;;;;;;;;;;;;;;13.69;68.37;103492.50;1266183;23;625;-66
2023/02/12 02:38:17;;;;;;;;;;;;;;;13.69;68.91;103495.19;1272656;23;618;-66
2023/02/12 02:39:08;;;;;;;;;;;;;;;13.68;68.38;103488.06;1272706;23;645;-66
2023/02/12 02:39:58;;;;;;;;;;;;;;;13.68;68.27;103488.06;1272951;23;629;-66
2023/02/12 02:40:49;;;;;;;;;;;;;;;13.68;67.99;103488.94;1272637;23;601;-66
2023/02/12 02:41:39;;;;;;;;;;;;;;;13.71;68.34;103485.28;1272709;23;681;-66
2023/02/12 02:42:29;;;;;;;;;;;;;;;13.69;68.28;103488.00;1272240;23;625;-66
2023/02/12 02:43:20;;;;;;;;;;;;;;;13.69;68.64;103492.50;1272831;23;656;-66
2023/02/12 02:44:10;;;;;;;;;;;;;;;13.69;68.47;103490.69;1272821;23;641;-66
2023/02/12 02:45:01;;;;;;;;;;;;;;;13.69;68.67;103495.19;1272875;23;645;-66
2023/02/12 02:45:51;;;;;;;;;;;;;;;13.68;67.83;103491.63;1273434;23;655;-67
2023/02/12 02:46:41;;;;;;;;;;;;;;;13.69;68.76;103493.38;1272717;23;625;-66
2023/02/12 02:47:32;;;;;;;;;;;;;;;13.69;68.37;103492.50;1272741;23;660;-66
2023/02/12 02:48:22;;;;;;;;;;;;;;;13.68;67.94;103486.25;1272888;23;621;-66
2023/02/12 02:49:13;;;;;;;;;;;;;;;13.67;68.49;103483.63;1272774;23;605;-66
2023/02/12 02:50:03;;;;;;;;;;;;;;;13.67;68.67;103489.00;1272878;23;637;-66
2023/02/12 02:50:54;;;;;;;;;;;;;;;13.66;68.51;103488.13;1272693;23;598;-66
2023/02/12 02:51:44;;;;;;;;;;;;;;;13.66;67.90;103481.88;1272726;23;645;-66
2023/02/12 02:52:34;;;;;;;;;;;;;;;13.67;68.57;103486.31;1273006;23;613;-65
2023/02/12 02:53:25;;;;;;;;;;;;;;;13.66;68.28;103482.75;1272552;23;617;-65
2023/02/12 02:54:15;;;;;;;;;;;;;;;13.68;68.43;103483.59;1272803;23;621;-65
2023/02/12 02:55:06;;;;;;;;;;;;;;;13.66;67.76;103488.13;1272804;23;677;-66
2023/02/12 02:55:56;;;;;;;;;;;;;;;13.65;68.62;103485.50;1272602;23;1241;-65
2023/02/12 02:56:46;;;;;;;;;;;;;;;13.64;68.17;103489.97;1271143;23;618;-65
2023/02/12 02:57:37;;;;;;;;;;;;;;;13.64;68.43;103489.97;1271837;23;657;-65
2023/02/12 02:58:27;;;;;;;;;;;;;;;13.64;68.56;103486.41;1271986;23;622;-65
2023/02/12 02:59:18;;;;;;;;;;;;;;;13.63;68.52;103485.53;1271840;23;641;-65
2023/02/12 03:00:08;;;;;;;;;;;;;;;13.64;68.11;103486.41;1272131;23;680;-66
2023/02/12 03:00:59;;;;;;;;;;;;;;;13.62;68.41;103486.47;1271662;23;781;-65
2023/02/12 03:01:49;;;;;;;;;;;;;;;13.62;68.33;103486.47;1271932;23;807;-65
2023/02/12 03:02:39;;;;;;;;;;;;;;;13.63;67.91;103487.34;1272010;23;619;-65
2023/02/12 03:03:30;;;;;;;;;;;;;;;13.62;68.41;103485.59;1271690;23;594;-65
2023/02/12 03:04:20;;;;;;;;;;;;;;;13.63;67.88;103490.03;1271942;23;614;-65
2023/02/12 03:05:11;;;;;;;;;;;;;;;13.63;68.06;103487.34;1271851;23;652;-65
2023/02/12 03:06:02;;;;;;;;;;;;;;;13.63;68.31;103484.66;1272032;23;669;-65
2023/02/12 03:06:52;;;;;;;;;;;;;;;13.63;68.25;103492.72;1271970;23;645;-65
2023/02/12 03:07:42;;;;;;;;;;;;;;;13.64;68.25;103483.75;1272589;23;648;-66
2023/02/12 03:08:33;;;;;;;;;;;;;;;13.62;68.07;103486.47;1271871;23;672;-66
2023/02/12 03:09:23;;;;;;;;;;;;;;;13.64;67.73;103491.78;1272110;23;704;-66
2023/02/12 03:10:14;;;;;;;;;;;;;;;13.64;68.18;103487.28;1271847;23;629;-66
2023/02/12 03:11:04;;;;;;;;;;;;;;;13.64;68.02;103489.09;1271450;23;649;-65
2023/02/12 03:11:55;;;;;;;;;;;;;;;13.64;67.93;103484.63;1271649;23;661;-66
2023/02/12 03:12:45;;;;;;;;;;;;;;;13.62;67.82;103482.91;1271871;23;614;-65
2023/02/12 03:13:35;;;;;;;;;;;;;;;13.63;68.52;103484.66;1273499;23;771;-65
2023/02/12 03:14:26;;;;;;;;;;;;;;;13.62;67.79;103477.56;1271895;23;617;-65
2023/02/12 03:15:16;;;;;;;;;;;;;;;13.64;67.75;103478.38;1272116;23;677;-66
2023/02/12 03:16:07;;;;;;;;;;;;;;;13.64;67.63;103473.03;1271668;23;653;-65
2023/02/12 03:16:57;;;;;;;;;;;;;;;13.65;67.57;103480.13;1271967;23;696;-65
2023/02/12 03:17:48;;;;;;;;;;;;;;;13.64;67.36;103483.75;1271686;23;743;-66
2023/02/12 03:18:38;;;;;;;;;;;;;;;13.64;68.09;103475.69;1271933;23;617;-66
2023/02/12 03:19:28;;;;;;;;;;;;;;;13.64;68.18;103483.75;1271942;23;629;-65
2023/02/12 03:20:19;;;;;;;;;;;;;;;13.64;67.63;103473.03;1271800;23;613;-65
2023/02/12 03:21:09;;;;;;;;;;;;;;;13.64;68.07;103481.06;1271918;23;665;-65
2023/02/12 03:22:00;;;;;;;;;;;;;;;13.62;67.50;103481.13;1266111;23;657;-65
2023/02/12 03:22:50;;;;;;;;;;;;;;;13.63;67.79;103476.63;1267100;23;633;-65
2023/02/12 03:23:41;;;;;;;;;;;;;;;13.63;68.00;103476.63;1272583;23;649;-65
2023/02/12 03:24:31;;;;;;;;;;;;;;;13.63;68.24;103476.63;1271775;23;653;-65
2023/02/12 03:25:21;;;;;;;;;;;;;;;13.63;67.73;103485.53;1272030;23;736;-65
2023/02/12 03:26:12;;;;;;;;;;;;;;;13.64;67.73;103475.69;1266261;23;610;-66
2023/02/12 03:27:02;;;;;;;;;;;;;;;13.63;67.94;103471.28;1267134;23;622;-65
2023/02/12 03:27:53;;;;;;;;;;;;;;;13.63;67.95;103473.94;1272706;23;665;-65
2023/02/12 03:28:43;;;;;;;;;;;;;;;13.62;67.47;103481.13;1271787;23;630;-65
2023/02/12 03:29:33;;;;;;;;;;;;;;;13.62;67.70;103477.56;1266290;23;653;-66
2023/02/12 03:30:24;;;;;;;;;;;;;;;13.62;67.92;103473.06;1266978;23;1889;-66
2023/02/12 03:31:14;;;;;;;;;;;;;;;13.63;67.87;103476.63;1272802;23;739;-66
2023/02/12 03:32:05;;;;;;;;;;;;;;;13.63;68.29;103472.16;1271811;23;626;-66
2023/02/12 03:32:55;;;;;;;;;;;;;;;13.59;68.06;103470.53;1271864;23;654;-66
2023/02/12 03:33:45;;;;;;;;;;;;;;;13.60;68.30;103469.59;1271392;23;642;-66
2023/02/12 03:34:36;;;;;;;;;;;;;;;13.61;67.61;103462.44;1271766;23;633;-66
2023/02/12 03:35:26;;;;;;;;;;;;;;;13.61;67.65;103474.03;1271882;23;661;-66
2023/02/12 03:36:17;;;;;;;;;;;;;;;13.61;68.05;103478.53;1271749;23;674;-66
2023/02/12 03:37:07;;;;;;;;;;;;;;;13.61;67.76;103474.03;1271786;23;645;-66
2023/02/12 03:37:58;;;;;;;;;;;;;;;13.61;67.68;103470.47;1271730;23;641;-66
2023/02/12 03:38:48;;;;;;;;;;;;;;;13.62;68.19;103478.44;1271901;23;593;-67
2023/02/12 03:39:38;;;;;;;;;;;;;;;13.62;67.48;103480.25;1272008;23;670;-66
2023/02/12 03:40:29;;;;;;;;;;;;;;;13.62;67.49;103486.47;1271120;23;653;-66
2023/02/12 03:41:19;;;;;;;;;;;;;;;13.63;67.64;103487.34;1271806;23;689;-66
2023/02/12 03:42:10;;;;;;;;;;;;;;;13.63;67.89;103487.34;1271715;23;601;-66
2023/02/12 03:43:00;;;;;;;;;;;;;;;13.64;67.69;103483.75;1271972;23;572;-66
2023/02/12 03:43:50;;;;;;;;;;;;;;;13.62;68.11;103485.59;1271646;23;723;-66
2023/02/12 03:44:41;;;;;;;;;;;;;;;13.60;68.22;103483.00;1271775;23;653;-66
2023/02/12 03:45:31;;;;;;;;;;;;;;;13.62;67.74;103486.47;1271860;23;617;-66
2023/02/12 03:46:22;;;;;;;;;;;;;;;13.62;67.80;103486.47;1271568;23;797;-66
2023/02/12 03:47:13;;;;;;;;;;;;;;;13.61;67.86;103490.09;1271704;23;650;-66
2023/02/12 03:48:03;;;;;;;;;;;;;;;13.61;67.84;103489.22;1271821;23;614;-66
2023/02/12 03:48:53;;;;;;;;;;;;;;;13.62;67.41;103485.59;1271970;23;621;-66
2023/02/12 03:49:44;;;;;;;;;;;;;;;13.62;67.36;103490.94;1271719;23;666;-66
2023/02/12 03:50:34;;;;;;;;;;;;;;;13.61;67.85;103489.22;1271881;23;1930;-66
2023/02/12 03:51:25;;;;;;;;;;;;;;;13.59;67.92;103493.78;1271527;23;638;-66
2023/02/12 03:52:15;;;;;;;;;;;;;;;13.59;67.85;103493.78;1271877;23;708;-66
2023/02/12 03:53:06;;;;;;;;;;;;;;;13.59;67.76;103497.31;1271655;23;669;-66
2023/02/12 03:53:56;;;;;;;;;;;;;;;13.60;67.37;103498.19;1271853;23;634;-66
2023/02/12 03:54:46;;;;;;;;;;;;;;;13.60;67.30;103491.03;1271364;23;695;-66
2023/02/12 03:55:37;;;;;;;;;;;;;;;13.60;67.64;103487.47;1271445;23;1164;-65
2023/02/12 03:56:27;;;;;;;;;;;;;;;13.60;67.62;103493.72;1271819;23;606;-66
2023/02/12 03:57:18;;;;;;;;;;;;;;;13.61;67.79;103498.16;1271604;23;633;-66
2023/02/12 03:58:08;;;;;;;;;;;;;;;13.61;67.02;103494.59;1271905;23;689;-66
2023/02/12 03:58:59;;;;;;;;;;;;;;;13.61;67.39;103487.44;1271567;23;645;-67
2023/02/12 03:59:49;;;;;;;;;;;;;;;13.62;67.68;103496.31;1271793;23;613;-66
2023/02/12 04:00:40;;;;;;;;;;;;;;;13.58;67.36;103490.22;1272497;23;652;-66
2023/02/12 04:01:30;;;;;;;;;;;;;;;13.59;67.76;103491.97;1271913;23;641;-66
2023/02/12 04:02:20;;;;;;;;;;;;;;;13.58;67.94;103492.03;1272049;23;595;-66
2023/02/12 04:03:11;;;;;;;;;;;;;;;13.55;67.50;103491.19;1271730;23;626;-66
2023/02/12 04:04:01;;;;;;;;;;;;;;;13.56;68.10;103494.75;1271787;23;692;-66
2023/02/12 04:04:52;;;;;;;;;;;;;;;13.54;67.63;103491.25;1272537;23;668;-66
2023/02/12 04:05:42;;;;;;;;;;;;;;;13.53;67.83;103487.69;1271708;23;623;-66
2023/02/12 04:06:32;;;;;;;;;;;;;;;13.53;67.95;103489.50;1271954;23;610;-65
2023/02/12 04:07:23;;;;;;;;;;;;;;;13.53;68.15;103490.38;1271623;23;590;-65
2023/02/12 04:08:13;;;;;;;;;;;;;;;13.52;68.02;103491.28;1271866;23;630;-65
2023/02/12 04:09:04;;;;;;;;;;;;;;;13.52;67.62;103485.94;1271044;23;637;-66
2023/02/12 04:09:54;;;;;;;;;;;;;;;13.52;67.45;103491.28;1271735;23;727;-65
2023/02/12 04:10:44;;;;;;;;;;;;;;;13.52;67.22;103490.41;1271954;23;1940;-66
2023/02/12 04:11:35;;;;;;;;;;;;;;;13.50;67.66;103493.16;1271614;23;614;-66
2023/02/12 04:12:25;;;;;;;;;;;;;;;13.52;67.90;103496.66;1271814;23;618;-66
2023/02/12 04:13:16;;;;;;;;;;;;;;;13.53;68.09;103498.41;1271526;23;614;-66
2023/02/12 04:14:06;;;;;;;;;;;;;;;13.53;67.51;103495.72;1271868;23;622;-66
2023/02/12 04:14:57;;;;;;;;;;;;;;;13.53;67.21;103502.88;1271602;23;649;-66
2023/02/12 04:15:47;;;;;;;;;;;;;;;13.52;67.99;103501.13;1271905;23;605;-67
2023/02/12 04:16:37;;;;;;;;;;;;;;;13.51;68.01;103496.69;1272090;23;660;-65
2023/02/12 04:17:28;;;;;;;;;;;;;;;13.50;68.11;103493.16;1271677;23;599;-65
2023/02/12 04:18:19;;;;;;;;;;;;;;;13.51;67.83;103494.03;1271833;23;653;-66
2023/02/12 04:19:09;;;;;;;;;;;;;;;13.52;68.31;103495.78;1272082;23;583;-66
2023/02/12 04:20:00;;;;;;;;;;;;;;;13.54;68.23;103505.50;1271702;23;626;-65
2023/02/12 04:20:50;;;;;;;;;;;;;;;13.54;67.64;103510.00;1271859;23;668;-65
2023/02/12 04:21:41;;;;;;;;;;;;;;;13.54;68.15;103505.50;1271547;23;688;-65
2023/02/12 04:22:31;;;;;;;;;;;;;;;13.55;67.77;103503.72;1271690;23;594;-65
2023/02/12 04:23:22;;;;;;;;;;;;;;;13.55;68.02;103509.94;1271927;23;642;-65
2023/02/12 04:24:12;;;;;;;;;;;;;;;13.53;67.65;103503.75;1271803;23;650;-65
2023/02/12 04:25:02;;;;;;;;;;;;;;;13.55;67.89;103509.06;1271839;23;622;-65
2023/02/12 04:25:53;;;;;;;;;;;;;;;13.54;67.63;103515.34;1271545;23;642;-65
2023/02/12 04:26:43;;;;;;;;;;;;;;;13.54;67.57;103508.19;1271783;23;657;-65
2023/02/12 04:27:34;;;;;;;;;;;;;;;13.53;67.65;103510.94;1271605;23;582;-65
2023/02/12 04:28:24;;;;;;;;;;;;;;;13.52;67.57;103512.72;1271611;23;645;-65
2023/02/12 04:29:14;;;;;;;;;;;;;;;13.52;67.44;103515.41;1271917;23;641;-65
2023/02/12 04:30:05;;;;;;;;;;;;;;;13.51;67.67;103512.78;1271582;23;590;-65